Dyersburg, TN

9:10 AM CDT on March 25, 2017 (GMT -0500)
Dyersburg Municipal

Weather History for KDYR - December, 2012

Change the Weather History Date:

Thursday, December 13, 2012

  Actual Average Record
Temperature  
Mean Temperature 39 °F -  
Max Temperature 55 °F 47 °F 64 °F (2006)
Min Temperature 23 °F 32 °F 12 °F (2010)
Degree Days  
Heating Degree Days 26    
Moisture  
Dew Point 21 °F    
Average Humidity 55    
Maximum Humidity 69    
Minimum Humidity 29    
Precipitation  
Precipitation 0.00 in - - ()
Sea Level Pressure  
Sea Level Pressure 30.35 in    
Wind  
Wind Speed 2 mph (SE)    
Max Wind Speed 8 mph    
Max Gust Speed -    
Visibility 10 miles    
Events      
Averages and records for this station are not official NWS values.
T = Trace of Precipitation, MM = Missing Value Source: NWS Daily Summary

Daily Weather History Graph

Daily Weather History Graph

Search for Another Location

Airport or City:

Trip Planner

Search our weather history database for the weather conditions in past years. The results will help you decide how hot, cold, wet, or windy it might be!

Date:

Astronomy

Dec. 13, 2012 Rise Set
Actual Time 6:59 AM CST 4:44 PM CST
Civil Twilight 6:31 AM CST 5:12 PM CST
Nautical Twilight 5:59 AM CST 5:44 PM CST
Astronomical Twilight 5:28 AM CST 6:16 PM CST
Moon 7:08 AM CST (12/13) 5:25 PM CST (12/13)
Length of Visible Light 10h 41m
Length of Day
9h 44m
New Moon, 0% of the Moon is Illuminated
Dec 13
New Moon
Dec 19
First Quarter
Dec 28
Full
Jan 4
Last Quarter
Jan 11
New

Hourly Weather History & Observations

Time (CST) Temp. Windchill Dew Point Humidity Pressure Visibility Wind Dir Wind Speed Gust Speed Precip Events Conditions
12:15 AM 30.2 °F - 17.6 °F 60% 30.36 in 10.0 mi Calm Calm - N/A   Clear
12:35 AM 30.2 °F - 19.4 °F 64% 30.36 in 10.0 mi Calm Calm - N/A   Clear
12:55 AM 30.2 °F 25.4 °F 19.4 °F 64% 30.35 in 10.0 mi ENE 4.6 mph - N/A   Clear
1:15 AM 28.4 °F - 17.6 °F 64% 30.36 in 10.0 mi Calm Calm - N/A   Clear
1:35 AM 28.4 °F - 19.4 °F 69% 30.37 in 10.0 mi Calm Calm - N/A   Clear
1:55 AM 28.4 °F 24.6 °F 19.4 °F 69% 30.38 in 10.0 mi ENE 3.5 mph - N/A   Clear
2:35 AM 28.4 °F 23.3 °F 17.6 °F 64% 30.37 in 10.0 mi East 4.6 mph - N/A   Clear
2:55 AM 28.4 °F - 17.6 °F 64% 30.37 in 10.0 mi Calm Calm - N/A   Clear
3:15 AM 26.6 °F 22.6 °F 17.6 °F 69% 30.37 in 10.0 mi ESE 3.5 mph - N/A   Clear
3:35 AM 26.6 °F - 17.6 °F 69% 30.37 in 10.0 mi Calm Calm - N/A   Clear
3:55 AM 28.4 °F - 17.6 °F 64% 30.38 in 10.0 mi Calm Calm - N/A   Clear
4:15 AM 26.6 °F - 17.6 °F 69% 30.38 in 10.0 mi Calm Calm - N/A   Clear
4:36 AM 24.8 °F - 15.8 °F 69% 30.38 in 10.0 mi Calm Calm - N/A   Clear
4:55 AM 24.8 °F - 15.8 °F 69% 30.38 in 10.0 mi Calm Calm - N/A   Clear
5:15 AM 24.8 °F - 15.8 °F 69% 30.38 in 10.0 mi Calm Calm - N/A   Clear
5:35 AM 26.6 °F - 17.6 °F 69% 30.39 in 10.0 mi Calm Calm - N/A   Clear
5:55 AM 26.6 °F 22.6 °F 17.6 °F 69% 30.39 in 10.0 mi ENE 3.5 mph - N/A   Clear
6:15 AM 24.8 °F - 15.8 °F 69% 30.40 in 10.0 mi Calm Calm - N/A   Clear
6:35 AM 23.0 °F 18.4 °F 14.0 °F 68% 30.40 in 10.0 mi ENE 3.5 mph - N/A   Clear
6:56 AM 24.8 °F 20.5 °F 15.8 °F 69% 30.40 in 10.0 mi ESE 3.5 mph - N/A   Clear
7:15 AM 24.8 °F - 15.8 °F 69% 30.41 in 10.0 mi Calm Calm - N/A   Clear
7:35 AM 28.4 °F - 17.6 °F 64% 30.41 in 10.0 mi Calm Calm - N/A   Clear
7:55 AM 28.4 °F 24.6 °F 19.4 °F 69% 30.40 in 10.0 mi East 3.5 mph - N/A   Clear
8:16 AM 30.2 °F - 21.2 °F 69% 30.41 in 10.0 mi Calm Calm - N/A   Clear
8:35 AM 33.8 °F - 23.0 °F 65% 30.41 in 10.0 mi Calm Calm - N/A   Clear
8:55 AM 35.6 °F 32.8 °F 23.0 °F 60% 30.41 in 10.0 mi East 3.5 mph - N/A   Clear
9:15 AM 37.4 °F 34.9 °F 24.8 °F 60% 30.42 in 10.0 mi East 3.5 mph - N/A   Clear
9:35 AM 39.2 °F 35.0 °F 26.6 °F 61% 30.42 in 10.0 mi SE 5.8 mph - N/A   Clear
9:55 AM 42.8 °F 38.6 °F 26.6 °F 53% 30.42 in 10.0 mi SE 6.9 mph - N/A   Clear
10:15 AM 42.8 °F 41.1 °F 26.6 °F 53% 30.41 in 10.0 mi SE 3.5 mph - N/A   Clear
10:36 AM 44.6 °F 43.1 °F 28.4 °F 53% 30.41 in 10.0 mi SSE 3.5 mph - N/A   Clear
10:55 AM 46.4 °F 43.5 °F 26.6 °F 46% 30.40 in 10.0 mi South 5.8 mph - N/A   Clear
11:55 AM 50.0 °F - 28.4 °F 43% 30.37 in 10.0 mi South 4.6 mph - N/A   Clear
12:35 PM 51.8 °F - 26.6 °F 38% 30.36 in 10.0 mi SE 4.6 mph - N/A   Clear
12:55 PM 53.6 °F - 26.6 °F 35% 30.34 in 10.0 mi SE 6.9 mph - N/A   Clear
1:15 PM 53.6 °F - 26.6 °F 35% 30.33 in 10.0 mi South 4.6 mph - N/A   Clear
1:35 PM 53.6 °F - 26.6 °F 35% 30.32 in 10.0 mi SE 8.1 mph - N/A   Clear
1:55 PM 53.6 °F - 24.8 °F 33% 30.32 in 10.0 mi SSW 6.9 mph - N/A   Clear
2:15 PM 55.4 °F - 24.8 °F 31% 30.31 in 10.0 mi SSW 4.6 mph - N/A   Clear
2:35 PM 55.4 °F - 23.0 °F 29% 30.30 in 8.0 mi SSE 4.6 mph - N/A   Clear
2:55 PM 55.4 °F - 24.8 °F 31% 30.30 in 10.0 mi SSW 4.6 mph - N/A   Clear
3:15 PM 53.6 °F - 24.8 °F 33% 30.30 in 10.0 mi SE 4.6 mph - N/A   Clear
3:36 PM 53.6 °F - 26.6 °F 35% 30.29 in 10.0 mi SE 4.6 mph - N/A   Clear
3:55 PM 53.6 °F - 26.6 °F 35% 30.29 in 10.0 mi SE 3.5 mph - N/A   Clear
4:15 PM 51.8 °F - 24.8 °F 35% 30.29 in 10.0 mi SE 3.5 mph - N/A   Clear
4:35 PM 51.8 °F - 23.0 °F 33% 30.29 in 10.0 mi Calm Calm - N/A   Clear
6:15 PM 46.4 °F - 21.2 °F 37% 30.31 in 10.0 mi Calm Calm - N/A   Clear
7:15 PM 41.0 °F - 19.4 °F 42% 30.30 in 10.0 mi Calm Calm - N/A   Clear
7:55 PM 39.2 °F - 21.2 °F 49% 30.30 in 10.0 mi Calm Calm - N/A   Clear
8:16 PM 33.8 °F - 21.2 °F 60% 30.30 in 10.0 mi Calm Calm - N/A   Clear
8:35 PM 37.4 °F - 24.8 °F 60% 30.30 in 10.0 mi Calm Calm - N/A   Clear
8:55 PM 37.4 °F - 21.2 °F 52% 30.30 in 10.0 mi Calm Calm - N/A   Clear
9:15 PM 37.4 °F - 21.2 °F 52% 30.30 in 10.0 mi Calm Calm - N/A   Clear
9:35 PM 37.4 °F - 19.4 °F 48% 30.30 in 10.0 mi Calm Calm - N/A   Clear
9:55 PM 33.8 °F - 21.2 °F 60% 30.30 in 10.0 mi Calm Calm - N/A   Clear
10:15 PM 33.8 °F - 21.2 °F 60% 30.30 in 10.0 mi Calm Calm - N/A   Clear
10:55 PM 32.0 °F 28.7 °F 19.4 °F 60% 30.30 in 10.0 mi SSE 3.5 mph - N/A   Clear
11:15 PM 33.8 °F - 21.2 °F 60% 30.30 in 10.0 mi Calm Calm - N/A   Clear
11:35 PM 32.0 °F - 21.2 °F 64% 30.31 in 10.0 mi Calm Calm - N/A   Clear